Time;durP1;ratioP1;P1;durP2;ratioP2;P2;SDS_P1;SDS_P2;PMS_P1;PMS_P2;Temp;Humidity;BMP_temperature;BMP_pressure;BME280_temperature;BME280_humidity;BME280_pressure;Samples;Min_cycle;Max_cycle;Signal;HPM_P1;HPM_P2
2022/11/30 00:02:21;;;;;;;18.98;13.93;;;;;;;;;;4937762;29;20464;-77
2022/11/30 00:04:47;;;;;;;21.52;14.77;;;;;;;;;;4950301;29;20410;-79
2022/11/30 00:07:13;;;;;;;19.25;12.95;;;;;;;;;;4947056;28;20394;-77
2022/11/30 00:09:39;;;;;;;16.05;11.23;;;;;;;;;;4952704;28;20031;-78
2022/11/30 00:12:05;;;;;;;17.85;12.18;;;;;;;;;;4944269;28;20633;-78
2022/11/30 00:14:31;;;;;;;14.05;9.88;;;;;;;;;;4956036;28;20065;-78
2022/11/30 00:16:57;;;;;;;12.50;9.35;;;;;;;;;;4955230;28;20509;-78
2022/11/30 00:19:24;;;;;;;13.63;9.27;;;;;;;;;;4952683;28;20110;-77
2022/11/30 00:21:50;;;;;;;10.70;8.07;;;;;;;;;;4955145;28;20033;-78
2022/11/30 00:24:16;;;;;;;12.30;9.02;;;;;;;;;;4956766;28;20345;-77
2022/11/30 00:26:42;;;;;;;18.38;7.32;;;;;;;;;;4963268;28;20171;-78
2022/11/30 00:29:08;;;;;;;11.13;7.68;;;;;;;;;;4936797;28;20125;-78
2022/11/30 00:31:34;;;;;;;13.23;9.15;;;;;;;;;;4962089;28;20535;-78
2022/11/30 00:34:00;;;;;;;15.35;10.60;;;;;;;;;;4951583;28;20152;-78
2022/11/30 00:36:26;;;;;;;17.65;11.48;;;;;;;;;;4952447;28;20171;-79
2022/11/30 00:38:52;;;;;;;11.90;9.60;;;;;;;;;;4952838;28;20054;-78
2022/11/30 00:41:19;;;;;;;10.95;8.68;;;;;;;;;;4962190;28;20118;-78
2022/11/30 00:43:45;;;;;;;13.80;9.98;;;;;;;;;;4934754;28;20061;-79
2022/11/30 00:46:11;;;;;;;11.43;8.95;;;;;;;;;;4953639;29;20027;-78
2022/11/30 00:48:37;;;;;;;16.30;10.65;;;;;;;;;;4956433;28;20551;-79
2022/11/30 00:51:04;;;;;;;15.68;10.32;;;;;;;;;;4961699;28;20253;-78
2022/11/30 00:53:30;;;;;;;16.40;11.27;;;;;;;;;;4953135;29;20023;-78
2022/11/30 00:55:56;;;;;;;22.60;12.60;;;;;;;;;;4958133;28;20038;-80
2022/11/30 00:58:22;;;;;;;19.60;12.93;;;;;;;;;;4939219;29;20601;-78
2022/11/30 01:00:49;;;;;;;24.95;13.80;;;;;;;;;;4945253;28;20019;-79
2022/11/30 01:03:15;;;;;;;21.83;12.75;;;;;;;;;;4963643;28;20038;-79
2022/11/30 01:05:42;;;;;;;16.90;12.45;;;;;;;;;;4957053;28;20015;-78
2022/11/30 01:08:09;;;;;;;25.00;14.38;;;;;;;;;;4967380;28;20481;-78
2022/11/30 01:10:36;;;;;;;21.25;14.93;;;;;;;;;;4949681;28;20493;-76
2022/11/30 01:13:02;;;;;;;21.30;14.52;;;;;;;;;;4952749;29;20076;-77
2022/11/30 01:15:29;;;;;;;22.25;15.68;;;;;;;;;;4941647;29;20024;-77
2022/11/30 01:17:55;;;;;;;30.58;14.35;;;;;;;;;;4921450;29;20062;-78
2022/11/30 01:20:21;;;;;;;20.58;14.27;;;;;;;;;;4945004;29;20035;-79
2022/11/30 01:22:47;;;;;;;19.95;14.02;;;;;;;;;;4947876;28;20138;-77
2022/11/30 01:25:13;;;;;;;20.10;14.38;;;;;;;;;;4949763;28;20050;-76
2022/11/30 01:27:39;;;;;;;19.35;14.43;;;;;;;;;;4954676;28;20043;-78
2022/11/30 01:30:05;;;;;;;21.75;14.80;;;;;;;;;;4954341;28;20038;-81
2022/11/30 01:32:31;;;;;;;19.27;14.00;;;;;;;;;;4958599;28;20046;-76
2022/11/30 01:34:57;;;;;;;27.13;13.77;;;;;;;;;;4957631;28;20031;-76
2022/11/30 01:37:23;;;;;;;22.23;13.30;;;;;;;;;;4948292;28;20540;-76
2022/11/30 01:39:49;;;;;;;17.58;11.98;;;;;;;;;;4957315;28;20031;-79
2022/11/30 01:42:17;;;;;;;19.50;13.60;;;;;;;;;;4950892;28;20039;-76
2022/11/30 01:44:59;;;;;;;25.90;14.15;;;;;;;;;;4951510;28;20060;-76
2022/11/30 01:47:41;;;;;;;23.48;14.75;;;;;;;;;;4930143;29;20043;-76
2022/11/30 01:50:16;;;;;;;27.13;16.95;;;;;;;;;;4960249;28;20408;-76
2022/11/30 01:52:44;;;;;;;36.78;17.23;;;;;;;;;;4955784;28;20047;-76
2022/11/30 01:55:10;;;;;;;24.58;17.13;;;;;;;;;;4958125;28;20039;-75
2022/11/30 01:57:37;;;;;;;26.40;16.42;;;;;;;;;;4945707;28;20026;-75
2022/11/30 02:00:06;;;;;;;26.38;17.20;;;;;;;;;;4956436;28;20115;-77
2022/11/30 02:02:47;;;;;;;28.30;18.15;;;;;;;;;;4948567;28;20392;-76
2022/11/30 02:05:15;;;;;;;29.52;18.67;;;;;;;;;;4944400;29;20236;-75
2022/11/30 02:07:42;;;;;;;26.48;18.80;;;;;;;;;;4954414;28;20054;-77
2022/11/30 02:10:12;;;;;;;31.58;19.38;;;;;;;;;;4952340;28;20036;-78
2022/11/30 02:12:42;;;;;;;33.38;20.42;;;;;;;;;;4952350;28;20035;-77
2022/11/30 02:15:11;;;;;;;31.40;21.65;;;;;;;;;;4959224;28;20027;-77
2022/11/30 02:17:39;;;;;;;39.20;21.50;;;;;;;;;;4956470;28;20042;-77
2022/11/30 02:20:15;;;;;;;34.17;21.33;;;;;;;;;;4964966;28;20468;-77
2022/11/30 02:23:01;;;;;;;36.45;22.17;;;;;;;;;;4949396;28;20066;-76
2022/11/30 02:25:43;;;;;;;29.83;20.20;;;;;;;;;;4955545;28;20046;-78
2022/11/30 02:28:13;;;;;;;31.98;20.10;;;;;;;;;;4933464;28;20047;-77
2022/11/30 02:30:42;;;;;;;31.40;20.05;;;;;;;;;;4917516;29;20055;-79
2022/11/30 02:33:11;;;;;;;32.53;20.70;;;;;;;;;;4930768;29;20122;-78
2022/11/30 02:35:40;;;;;;;30.65;20.13;;;;;;;;;;4921129;29;20496;-79
2022/11/30 02:38:06;;;;;;;31.80;20.58;;;;;;;;;;4926281;29;20059;-77
2022/11/30 02:40:32;;;;;;;93.85;52.40;;;;;;;;;;4937418;29;20055;-76
2022/11/30 02:42:59;;;;;;;33.35;20.73;;;;;;;;;;4931677;29;20075;-78
2022/11/30 02:45:46;;;;;;;32.40;19.48;;;;;;;;;;4931639;29;20028;-77
2022/11/30 02:48:13;;;;;;;32.63;19.85;;;;;;;;;;4921912;29;20052;-76
2022/11/30 02:50:48;;;;;;;28.60;18.33;;;;;;;;;;4935804;29;20036;-76
2022/11/30 02:53:14;;;;;;;30.73;19.25;;;;;;;;;;4928639;29;20036;-76
2022/11/30 02:55:40;;;;;;;28.98;18.27;;;;;;;;;;4940542;29;20557;-77
2022/11/30 02:58:06;;;;;;;30.30;19.15;;;;;;;;;;4932268;29;20084;-77
2022/11/30 03:00:32;;;;;;;25.20;17.05;;;;;;;;;;4932288;29;20152;-76
2022/11/30 03:02:58;;;;;;;27.90;18.88;;;;;;;;;;4929617;29;20393;-77
2022/11/30 03:05:24;;;;;;;25.67;16.95;;;;;;;;;;4939909;29;20481;-76
2022/11/30 03:07:50;;;;;;;29.23;18.13;;;;;;;;;;4929182;28;20040;-77
2022/11/30 03:10:16;;;;;;;27.75;17.40;;;;;;;;;;4929923;29;20042;-79
2022/11/30 03:12:43;;;;;;;24.80;15.82;;;;;;;;;;4931172;29;20035;-77
2022/11/30 03:15:12;;;;;;;28.63;16.98;;;;;;;;;;4931615;29;20505;-77
2022/11/30 03:17:38;;;;;;;28.73;18.35;;;;;;;;;;4928819;29;20042;-77
2022/11/30 03:20:04;;;;;;;24.73;16.73;;;;;;;;;;4936166;29;20031;-76
2022/11/30 03:22:30;;;;;;;26.33;16.15;;;;;;;;;;4925994;29;20074;-76
2022/11/30 03:24:56;;;;;;;25.05;16.25;;;;;;;;;;4931737;29;20600;-78
2022/11/30 03:27:22;;;;;;;28.90;16.90;;;;;;;;;;4927427;29;20488;-77
2022/11/30 03:29:48;;;;;;;27.75;16.38;;;;;;;;;;4927531;29;20046;-77
2022/11/30 03:32:14;;;;;;;24.25;15.30;;;;;;;;;;4930991;29;20122;-77
2022/11/30 03:34:40;;;;;;;29.88;16.50;;;;;;;;;;4920265;29;20043;-77
2022/11/30 03:37:07;;;;;;;28.02;17.05;;;;;;;;;;4928431;29;20051;-77
2022/11/30 03:39:33;;;;;;;26.42;16.65;;;;;;;;;;4934646;29;20036;-77
2022/11/30 03:41:59;;;;;;;32.33;18.45;;;;;;;;;;4914914;29;20344;-77
2022/11/30 03:44:25;;;;;;;26.55;17.30;;;;;;;;;;4913348;29;20477;-77
2022/11/30 03:46:51;;;;;;;27.25;17.85;;;;;;;;;;4929880;29;20496;-76
2022/11/30 03:49:17;;;;;;;27.48;17.42;;;;;;;;;;4933528;29;20485;-78
2022/11/30 03:51:43;;;;;;;29.02;17.88;;;;;;;;;;4936420;29;20055;-78
2022/11/30 03:54:09;;;;;;;28.40;16.45;;;;;;;;;;4933648;29;20075;-78
2022/11/30 03:56:35;;;;;;;23.90;16.75;;;;;;;;;;4946238;29;20042;-78
2022/11/30 03:59:01;;;;;;;20.98;15.20;;;;;;;;;;4908680;29;20035;-77
2022/11/30 04:01:27;;;;;;;24.52;16.00;;;;;;;;;;4934633;29;20532;-78
2022/11/30 04:03:53;;;;;;;20.90;14.52;;;;;;;;;;4934255;29;20098;-80
2022/11/30 04:06:21;;;;;;;24.75;14.68;;;;;;;;;;4918692;29;20027;-77
2022/11/30 04:08:48;;;;;;;25.52;15.77;;;;;;;;;;4935037;29;20520;-78
2022/11/30 04:11:14;;;;;;;21.38;14.85;;;;;;;;;;4934870;29;20083;-78
2022/11/30 04:13:40;;;;;;;25.08;15.45;;;;;;;;;;4932466;29;20035;-76
2022/11/30 04:16:07;;;;;;;23.30;16.20;;;;;;;;;;4931248;29;20102;-77
2022/11/30 04:18:34;;;;;;;24.98;16.48;;;;;;;;;;4934334;29;20040;-79
2022/11/30 04:21:00;;;;;;;26.73;17.02;;;;;;;;;;4930284;29;20043;-80
2022/11/30 04:23:30;;;;;;;23.25;15.13;;;;;;;;;;4944391;29;20436;-77
2022/11/30 04:25:56;;;;;;;29.48;16.17;;;;;;;;;;4933577;29;20059;-77
2022/11/30 04:28:22;;;;;;;26.92;16.30;;;;;;;;;;4961312;28;20402;-77
2022/11/30 04:30:48;;;;;;;29.15;17.40;;;;;;;;;;4959228;28;20107;-78
2022/11/30 04:33:15;;;;;;;39.75;18.40;;;;;;;;;;4953876;28;20346;-77
2022/11/30 04:35:43;;;;;;;24.42;16.55;;;;;;;;;;4949741;28;20099;-77
2022/11/30 04:38:09;;;;;;;30.25;16.42;;;;;;;;;;4953041;28;20042;-78
2022/11/30 04:40:38;;;;;;;25.95;17.67;;;;;;;;;;4951712;28;20039;-76
2022/11/30 04:43:04;;;;;;;28.80;17.33;;;;;;;;;;4953789;28;20038;-77
2022/11/30 04:45:30;;;;;;;185.88;22.77;;;;;;;;;;4952323;28;20054;-76
2022/11/30 04:47:56;;;;;;;179.57;24.63;;;;;;;;;;4953265;28;20039;-80
2022/11/30 04:50:22;;;;;;;246.75;25.08;;;;;;;;;;4963304;28;20031;-77
2022/11/30 04:52:48;;;;;;;112.03;21.48;;;;;;;;;;4937140;29;20044;-77
2022/11/30 04:55:18;;;;;;;228.00;26.33;;;;;;;;;;4952037;28;20031;-77
2022/11/30 04:57:44;;;;;;;309.73;32.20;;;;;;;;;;4965952;28;20038;-78
2022/11/30 05:00:10;;;;;;;474.27;36.88;;;;;;;;;;4971726;28;20039;-77
2022/11/30 05:02:36;;;;;;;165.93;24.25;;;;;;;;;;4951167;28;20039;-77
2022/11/30 05:05:02;;;;;;;94.72;22.08;;;;;;;;;;4962735;28;20069;-77
2022/11/30 05:07:28;;;;;;;134.85;24.33;;;;;;;;;;4957032;28;20047;-78
2022/11/30 05:09:54;;;;;;;88.30;24.40;;;;;;;;;;4955594;28;20035;-77
2022/11/30 05:12:20;;;;;;;68.20;24.50;;;;;;;;;;4949942;28;20035;-79
2022/11/30 05:14:46;;;;;;;54.28;24.02;;;;;;;;;;4965837;28;20497;-79
2022/11/30 05:17:13;;;;;;;42.47;23.30;;;;;;;;;;4951344;28;20130;-76
2022/11/30 05:19:39;;;;;;;41.10;22.75;;;;;;;;;;4936249;29;20027;-77
2022/11/30 05:22:05;;;;;;;39.22;21.70;;;;;;;;;;4959696;28;20039;-78
2022/11/30 05:24:31;;;;;;;42.95;22.42;;;;;;;;;;4952536;28;20086;-76
2022/11/30 05:26:57;;;;;;;40.75;22.98;;;;;;;;;;4934042;28;20066;-77
2022/11/30 05:29:23;;;;;;;34.92;20.27;;;;;;;;;;4950827;28;20035;-77
2022/11/30 05:31:49;;;;;;;36.42;20.80;;;;;;;;;;4935374;29;20060;-77
2022/11/30 05:34:15;;;;;;;32.17;20.08;;;;;;;;;;4943919;28;20035;-77
2022/11/30 05:36:41;;;;;;;31.95;20.92;;;;;;;;;;4968766;28;20437;-76
2022/11/30 05:39:07;;;;;;;31.48;20.13;;;;;;;;;;4961604;28;20027;-76
2022/11/30 05:41:33;;;;;;;33.53;20.25;;;;;;;;;;4963047;28;20086;-77
2022/11/30 05:43:59;;;;;;;32.80;20.05;;;;;;;;;;4959650;28;20384;-77
2022/11/30 05:46:25;;;;;;;29.23;19.45;;;;;;;;;;4932129;29;20095;-77
2022/11/30 05:48:51;;;;;;;32.47;19.90;;;;;;;;;;4944383;28;20054;-77
2022/11/30 05:51:19;;;;;;;36.53;21.73;;;;;;;;;;4961397;28;20089;-78
2022/11/30 05:53:45;;;;;;;30.98;20.55;;;;;;;;;;4963573;28;20028;-78
2022/11/30 05:56:13;;;;;;;29.55;19.80;;;;;;;;;;4967456;28;20027;-77
2022/11/30 05:58:39;;;;;;;32.55;19.30;;;;;;;;;;4959020;28;20573;-78
2022/11/30 06:01:05;;;;;;;36.50;20.00;;;;;;;;;;4952401;29;20409;-77
2022/11/30 06:03:33;;;;;;;28.15;19.08;;;;;;;;;;4949598;28;20019;-77
2022/11/30 06:06:00;;;;;;;31.20;19.77;;;;;;;;;;4952784;28;20181;-78
2022/11/30 06:08:26;;;;;;;30.77;19.95;;;;;;;;;;4954189;28;20055;-81
2022/11/30 06:10:52;;;;;;;30.92;19.60;;;;;;;;;;4932808;29;20480;-79
2022/11/30 06:13:18;;;;;;;35.75;19.80;;;;;;;;;;4963980;28;20118;-78
2022/11/30 06:15:45;;;;;;;35.67;20.13;;;;;;;;;;4948749;28;20025;-77
2022/11/30 06:18:11;;;;;;;34.67;19.67;;;;;;;;;;4941021;28;20111;-79
2022/11/30 06:20:38;;;;;;;29.25;17.80;;;;;;;;;;4950617;28;20039;-80
2022/11/30 06:23:05;;;;;;;32.80;19.33;;;;;;;;;;4943839;29;20154;-78
2022/11/30 06:25:31;;;;;;;33.20;19.48;;;;;;;;;;4953783;28;20504;-77
2022/11/30 06:27:57;;;;;;;38.55;17.77;;;;;;;;;;4936711;28;20055;-78
2022/11/30 06:30:23;;;;;;;27.50;18.30;;;;;;;;;;4930371;29;20035;-78
2022/11/30 06:32:50;;;;;;;30.50;19.60;;;;;;;;;;4930945;29;20032;-77
2022/11/30 06:35:17;;;;;;;34.58;18.75;;;;;;;;;;4928611;29;20115;-77
2022/11/30 06:37:43;;;;;;;28.40;17.73;;;;;;;;;;4919603;29;20095;-78
2022/11/30 06:40:10;;;;;;;27.17;19.17;;;;;;;;;;4932309;29;20050;-77
2022/11/30 06:42:37;;;;;;;38.15;23.98;;;;;;;;;;4931665;29;20055;-76
2022/11/30 06:45:03;;;;;;;39.45;24.02;;;;;;;;;;4940040;29;20027;-79
2022/11/30 06:47:29;;;;;;;42.92;25.67;;;;;;;;;;4936488;29;20119;-78
2022/11/30 06:49:55;;;;;;;42.72;26.30;;;;;;;;;;4921120;29;20054;-80
2022/11/30 06:52:21;;;;;;;57.97;32.33;;;;;;;;;;4929027;29;20043;-75
2022/11/30 06:54:47;;;;;;;59.78;34.63;;;;;;;;;;4930037;29;20043;-79
2022/11/30 06:57:13;;;;;;;40.20;23.15;;;;;;;;;;4925506;29;20039;-78
2022/11/30 06:59:42;;;;;;;42.28;25.30;;;;;;;;;;4929553;29;20106;-79
2022/11/30 07:02:12;;;;;;;32.33;19.90;;;;;;;;;;4910689;29;20088;-77
2022/11/30 07:04:38;;;;;;;30.13;19.63;;;;;;;;;;4926855;29;20035;-77
2022/11/30 07:07:06;;;;;;;45.03;27.83;;;;;;;;;;4912386;29;20508;-81
2022/11/30 07:09:32;;;;;;;39.80;23.05;;;;;;;;;;4920452;29;20060;-81
2022/11/30 07:11:58;;;;;;;36.00;20.98;;;;;;;;;;4917118;29;20023;-79
2022/11/30 07:14:24;;;;;;;35.72;22.08;;;;;;;;;;4931905;29;20042;-78
2022/11/30 07:16:50;;;;;;;31.52;19.08;;;;;;;;;;4933690;29;20032;-76
2022/11/30 07:19:16;;;;;;;33.25;18.98;;;;;;;;;;4935430;29;20036;-75
2022/11/30 07:21:42;;;;;;;36.35;22.23;;;;;;;;;;4938837;28;20035;-78
2022/11/30 07:26:57;;;;;;;39.53;24.02;;;;;;;;;;4928594;28;20066;-78
2022/11/30 07:29:23;;;;;;;39.75;24.50;;;;;;;;;;4948426;28;20036;-75
2022/11/30 07:31:52;;;;;;;47.50;25.77;;;;;;;;;;4963239;28;20043;-75
2022/11/30 07:34:18;;;;;;;47.13;27.05;;;;;;;;;;4949733;28;20031;-76
2022/11/30 07:36:44;;;;;;;42.75;26.33;;;;;;;;;;4948317;28;20050;-74
2022/11/30 07:39:11;;;;;;;56.88;29.33;;;;;;;;;;4942933;28;20495;-75
2022/11/30 07:41:37;;;;;;;47.88;29.65;;;;;;;;;;4946737;28;20740;-73
2022/11/30 07:44:07;;;;;;;54.70;30.55;;;;;;;;;;4937507;28;20512;-78
2022/11/30 07:46:34;;;;;;;75.20;41.20;;;;;;;;;;4949913;28;20031;-74
2022/11/30 07:49:01;;;;;;;81.50;45.83;;;;;;;;;;4935954;28;20044;-74
2022/11/30 07:51:27;;;;;;;53.53;29.02;;;;;;;;;;4949077;28;20619;-74
2022/11/30 07:53:55;;;;;;;50.65;27.30;;;;;;;;;;4956059;28;20027;-75
2022/11/30 07:56:21;;;;;;;49.42;27.40;;;;;;;;;;4949942;29;20034;-74
2022/11/30 07:58:48;;;;;;;47.65;27.90;;;;;;;;;;4950178;28;20039;-75
2022/11/30 08:01:15;;;;;;;54.67;28.08;;;;;;;;;;4950637;29;20023;-78
2022/11/30 08:03:41;;;;;;;47.08;26.48;;;;;;;;;;4950277;28;20098;-77
2022/11/30 08:06:09;;;;;;;51.15;27.98;;;;;;;;;;4940618;28;20126;-76
2022/11/30 08:08:35;;;;;;;53.22;27.33;;;;;;;;;;4947515;28;20352;-77
2022/11/30 08:11:02;;;;;;;61.42;30.10;;;;;;;;;;4953459;28;20495;-77
2022/11/30 08:13:28;;;;;;;61.65;30.98;;;;;;;;;;4926891;28;20039;-75
2022/11/30 08:15:54;;;;;;;68.05;31.55;;;;;;;;;;4945965;28;20090;-75
2022/11/30 08:18:21;;;;;;;65.35;30.25;;;;;;;;;;4947794;28;20046;-76
2022/11/30 08:20:57;;;;;;;72.63;32.40;;;;;;;;;;4951281;28;20039;-77
2022/11/30 08:23:23;;;;;;;72.90;31.40;;;;;;;;;;4962524;28;20162;-73
2022/11/30 08:25:49;;;;;;;69.28;30.40;;;;;;;;;;4947753;28;20396;-74
2022/11/30 08:28:15;;;;;;;62.88;29.83;;;;;;;;;;4942193;28;20059;-75
2022/11/30 08:30:41;;;;;;;68.20;31.20;;;;;;;;;;4947356;28;20026;-77
2022/11/30 08:33:07;;;;;;;69.50;30.80;;;;;;;;;;4956474;28;20038;-73
2022/11/30 08:35:33;;;;;;;515.30;352.10;;;;;;;;;;4950202;28;20030;-73
2022/11/30 08:37:59;;;;;;;123.65;63.47;;;;;;;;;;4947965;28;20035;-73
2022/11/30 08:40:25;;;;;;;83.40;36.60;;;;;;;;;;4955603;28;20054;-77
2022/11/30 08:42:51;;;;;;;70.28;32.13;;;;;;;;;;4963799;28;20102;-74
2022/11/30 08:45:17;;;;;;;74.68;32.15;;;;;;;;;;4962269;28;20130;-74
2022/11/30 08:47:43;;;;;;;73.53;34.50;;;;;;;;;;4949189;28;20074;-74
2022/11/30 08:50:10;;;;;;;67.75;31.15;;;;;;;;;;4948035;28;20035;-78
2022/11/30 08:52:36;;;;;;;67.40;29.88;;;;;;;;;;4930477;28;20036;-75
2022/11/30 08:55:02;;;;;;;61.25;30.23;;;;;;;;;;4949660;28;20046;-75
2022/11/30 08:57:30;;;;;;;69.57;29.85;;;;;;;;;;4958130;28;20070;-79
2022/11/30 08:59:56;;;;;;;62.05;28.23;;;;;;;;;;4948918;28;20039;-76
2022/11/30 09:02:22;;;;;;;64.55;29.52;;;;;;;;;;4958357;28;20433;-79
2022/11/30 09:04:49;;;;;;;79.97;40.05;;;;;;;;;;4951218;28;20106;-79
2022/11/30 09:07:16;;;;;;;92.50;48.58;;;;;;;;;;4945194;28;20416;-77
2022/11/30 09:09:42;;;;;;;74.68;34.60;;;;;;;;;;4947611;28;20038;-75
2022/11/30 09:12:08;;;;;;;66.45;29.75;;;;;;;;;;4954883;28;20030;-76
2022/11/30 09:14:34;;;;;;;69.82;30.33;;;;;;;;;;4972680;28;20089;-77
2022/11/30 09:17:00;;;;;;;58.30;29.92;;;;;;;;;;4950398;28;20035;-74
2022/11/30 09:19:26;;;;;;;64.00;31.63;;;;;;;;;;4948379;28;20039;-81
2022/11/30 09:21:52;;;;;;;72.43;33.67;;;;;;;;;;4949393;28;20519;-74
2022/11/30 09:24:19;;;;;;;60.08;30.63;;;;;;;;;;4964644;28;20038;-77
2022/11/30 09:26:45;;;;;;;56.85;28.10;;;;;;;;;;4953673;28;20075;-76
2022/11/30 09:29:11;;;;;;;61.85;29.55;;;;;;;;;;4944530;28;20091;-76
2022/11/30 09:31:37;;;;;;;59.28;28.30;;;;;;;;;;4949959;28;20081;-75
2022/11/30 09:34:03;;;;;;;58.67;28.73;;;;;;;;;;4952086;28;20121;-74
2022/11/30 09:36:29;;;;;;;58.00;27.88;;;;;;;;;;4948620;28;20054;-76
2022/11/30 09:38:56;;;;;;;57.28;28.00;;;;;;;;;;4947843;28;20031;-77
2022/11/30 09:41:22;;;;;;;67.15;34.38;;;;;;;;;;4950532;28;20098;-77
2022/11/30 09:43:54;;;;;;;53.40;29.25;;;;;;;;;;4947073;28;20098;-79
2022/11/30 09:46:23;;;;;;;59.80;29.40;;;;;;;;;;4951946;28;20030;-78
2022/11/30 09:48:53;;;;;;;60.42;29.20;;;;;;;;;;4948564;28;20138;-77
2022/11/30 09:51:26;;;;;;;61.47;30.13;;;;;;;;;;4943685;28;20138;-74
2022/11/30 09:54:01;;;;;;;55.53;27.77;;;;;;;;;;4946625;28;20035;-74
2022/11/30 09:56:30;;;;;;;52.35;25.98;;;;;;;;;;4955809;28;20035;-75
2022/11/30 09:59:02;;;;;;;53.38;25.27;;;;;;;;;;4951578;28;20035;-75
2022/11/30 10:01:28;;;;;;;47.90;24.85;;;;;;;;;;4955856;28;20037;-74
2022/11/30 10:03:54;;;;;;;53.25;26.23;;;;;;;;;;4951375;28;20556;-76
2022/11/30 10:06:24;;;;;;;47.95;24.58;;;;;;;;;;4943116;29;20091;-74
2022/11/30 10:09:19;;;;;;;47.42;24.73;;;;;;;;;;4951586;28;20042;-75
2022/11/30 10:11:51;;;;;;;51.40;25.73;;;;;;;;;;4920085;29;20577;-74
2022/11/30 10:14:23;;;;;;;58.00;26.65;;;;;;;;;;4951700;29;20039;-75
2022/11/30 10:17:00;;;;;;;50.15;27.42;;;;;;;;;;4957494;28;20412;-79
2022/11/30 10:19:44;;;;;;;52.03;28.48;;;;;;;;;;4957444;28;20027;-75
2022/11/30 10:22:13;;;;;;;53.72;25.20;;;;;;;;;;4955584;28;20050;-76
2022/11/30 10:24:42;;;;;;;52.08;25.88;;;;;;;;;;4950878;29;20024;-75
2022/11/30 10:27:32;;;;;;;57.28;28.02;;;;;;;;;;4961372;28;20504;-74
2022/11/30 10:30:00;;;;;;;46.15;24.55;;;;;;;;;;4940833;29;20619;-75
2022/11/30 10:32:37;;;;;;;51.75;26.33;;;;;;;;;;4956992;28;20042;-75
2022/11/30 10:35:15;;;;;;;45.03;24.73;;;;;;;;;;4950675;28;20019;-79
2022/11/30 10:37:43;;;;;;;50.40;25.38;;;;;;;;;;4953606;28;20049;-75
2022/11/30 10:40:13;;;;;;;42.65;24.33;;;;;;;;;;4950387;28;20023;-74
2022/11/30 10:42:46;;;;;;;48.15;25.33;;;;;;;;;;4937495;28;20027;-74
2022/11/30 10:45:13;;;;;;;51.55;25.83;;;;;;;;;;4960922;28;20042;-74
2022/11/30 10:47:43;;;;;;;52.33;26.30;;;;;;;;;;4957024;28;20079;-74
2022/11/30 10:50:13;;;;;;;43.28;25.00;;;;;;;;;;4958103;28;20374;-76
2022/11/30 10:52:45;;;;;;;44.15;24.83;;;;;;;;;;4966143;28;20031;-75
2022/11/30 10:55:22;;;;;;;47.35;24.35;;;;;;;;;;4970927;28;20083;-75
2022/11/30 10:57:49;;;;;;;51.03;28.10;;;;;;;;;;4961549;28;20050;-76
2022/11/30 11:00:17;;;;;;;49.60;26.88;;;;;;;;;;4956968;28;20034;-77
2022/11/30 11:02:50;;;;;;;47.22;26.02;;;;;;;;;;4951384;28;20027;-75
2022/11/30 11:05:29;;;;;;;39.35;24.00;;;;;;;;;;4931965;29;20039;-78
2022/11/30 11:08:00;;;;;;;38.13;24.15;;;;;;;;;;4923596;29;20066;-76
2022/11/30 11:10:29;;;;;;;47.17;26.38;;;;;;;;;;4951145;29;20023;-78
2022/11/30 11:12:55;;;;;;;41.10;23.95;;;;;;;;;;4945025;28;20526;-76
2022/11/30 11:15:29;;;;;;;43.83;24.98;;;;;;;;;;4952564;28;20034;-75
2022/11/30 11:18:11;;;;;;;43.05;25.08;;;;;;;;;;4947724;28;20052;-76
2022/11/30 11:20:41;;;;;;;49.33;26.08;;;;;;;;;;4938686;28;20031;-80
2022/11/30 11:23:20;;;;;;;53.58;31.13;;;;;;;;;;4936602;28;20031;-82
2022/11/30 11:25:51;;;;;;;43.58;25.17;;;;;;;;;;4933950;28;20050;-78
2022/11/30 11:28:20;;;;;;;42.78;25.42;;;;;;;;;;4928436;28;20179;-77
2022/11/30 11:30:46;;;;;;;48.00;25.23;;;;;;;;;;4930843;29;20051;-78
2022/11/30 11:33:12;;;;;;;45.47;26.20;;;;;;;;;;4929672;29;20036;-79
2022/11/30 11:35:50;;;;;;;42.65;24.52;;;;;;;;;;4922398;29;20060;-80
2022/11/30 11:38:19;;;;;;;47.13;25.52;;;;;;;;;;4921908;29;20169;-78
2022/11/30 11:40:52;;;;;;;41.63;24.08;;;;;;;;;;4919010;29;20058;-79
2022/11/30 11:43:18;;;;;;;43.15;24.33;;;;;;;;;;4919392;29;20032;-76
2022/11/30 11:45:49;;;;;;;42.10;23.77;;;;;;;;;;4926776;29;20035;-78
2022/11/30 11:48:30;;;;;;;46.67;23.52;;;;;;;;;;4928087;29;20064;-77
2022/11/30 11:50:57;;;;;;;41.58;23.25;;;;;;;;;;4926521;29;20420;-78
2022/11/30 11:53:35;;;;;;;61.45;34.83;;;;;;;;;;4932836;29;20032;-75
2022/11/30 11:56:05;;;;;;;47.53;25.42;;;;;;;;;;4929463;29;20038;-83
2022/11/30 11:58:41;;;;;;;42.75;24.48;;;;;;;;;;4923185;29;20047;-78
2022/11/30 12:01:10;;;;;;;39.30;23.00;;;;;;;;;;4927311;29;20032;-78
2022/11/30 12:03:43;;;;;;;41.50;23.23;;;;;;;;;;4936965;29;20040;-75
2022/11/30 12:06:13;;;;;;;47.65;24.92;;;;;;;;;;4915661;29;20548;-78
2022/11/30 12:08:57;;;;;;;40.00;23.15;;;;;;;;;;4913043;29;20040;-80
2022/11/30 12:11:34;;;;;;;42.13;22.70;;;;;;;;;;4914694;29;20051;-77
2022/11/30 12:14:08;;;;;;;39.90;22.17;;;;;;;;;;4934520;29;20517;-76
2022/11/30 12:16:35;;;;;;;41.00;24.10;;;;;;;;;;4924636;29;20050;-77
2022/11/30 12:19:01;;;;;;;40.83;23.63;;;;;;;;;;4937296;29;20441;-77
2022/11/30 12:21:27;;;;;;;38.63;23.13;;;;;;;;;;4941124;29;20123;-78
2022/11/30 12:23:56;;;;;;;38.00;23.00;;;;;;;;;;4935062;29;20028;-76
2022/11/30 12:26:40;;;;;;;49.38;25.70;;;;;;;;;;4942954;29;20031;-75
2022/11/30 12:29:24;;;;;;;41.13;23.98;;;;;;;;;;4941174;29;20087;-78
2022/11/30 12:32:01;;;;;;;41.92;24.23;;;;;;;;;;4931433;29;20027;-75
2022/11/30 12:34:59;;;;;;;44.30;24.83;;;;;;;;;;4947875;29;20038;-79
2022/11/30 12:37:48;;;;;;;44.75;25.50;;;;;;;;;;4906655;29;20056;-75
2022/11/30 12:40:17;;;;;;;44.53;23.95;;;;;;;;;;4897721;29;20399;-77
2022/11/30 12:42:46;;;;;;;44.10;25.52;;;;;;;;;;4934464;29;20054;-76
2022/11/30 12:45:15;;;;;;;37.42;23.60;;;;;;;;;;4931701;29;20161;-74
2022/11/30 12:47:50;;;;;;;42.08;25.90;;;;;;;;;;4938283;29;20027;-75
2022/11/30 12:50:35;;;;;;;38.53;24.73;;;;;;;;;;4933359;29;20306;-76
2022/11/30 12:53:10;;;;;;;59.92;34.55;;;;;;;;;;4940329;29;20083;-75
2022/11/30 12:55:50;;;;;;;69.25;40.08;;;;;;;;;;4950794;29;20119;-76
2022/11/30 12:58:41;;;;;;;46.63;26.60;;;;;;;;;;4935832;29;20032;-77
2022/11/30 13:01:20;;;;;;;45.05;26.25;;;;;;;;;;4936084;29;20115;-81
2022/11/30 13:03:46;;;;;;;46.05;27.48;;;;;;;;;;4935846;29;20423;-76
2022/11/30 13:06:32;;;;;;;49.70;28.20;;;;;;;;;;4953139;29;20606;-77
2022/11/30 13:09:10;;;;;;;50.53;29.85;;;;;;;;;;4917250;29;20105;-74
2022/11/30 13:11:37;;;;;;;52.33;29.15;;;;;;;;;;4949170;29;20043;-74
2022/11/30 13:14:05;;;;;;;52.28;30.63;;;;;;;;;;4933317;29;20036;-73
2022/11/30 13:16:32;;;;;;;51.95;31.33;;;;;;;;;;4933206;29;20036;-73
2022/11/30 13:19:03;;;;;;;60.78;31.88;;;;;;;;;;4929354;29;20540;-74
2022/11/30 13:21:36;;;;;;;52.38;30.25;;;;;;;;;;4933263;29;20024;-73
2022/11/30 13:24:14;;;;;;;55.42;32.13;;;;;;;;;;4938356;29;20115;-73
2022/11/30 13:26:49;;;;;;;57.17;33.33;;;;;;;;;;4941927;29;20103;-72
2022/11/30 13:29:34;;;;;;;57.85;32.45;;;;;;;;;;4945020;29;20043;-72
2022/11/30 13:32:05;;;;;;;60.95;33.35;;;;;;;;;;4956875;28;20023;-71
2022/11/30 13:34:31;;;;;;;59.30;35.63;;;;;;;;;;4948104;28;20504;-72
2022/11/30 13:37:05;;;;;;;58.33;33.30;;;;;;;;;;4954639;28;20027;-72
2022/11/30 13:39:49;;;;;;;56.42;31.25;;;;;;;;;;4935328;29;20034;-73
2022/11/30 13:42:33;;;;;;;57.53;30.52;;;;;;;;;;4951638;28;20611;-72
2022/11/30 13:45:15;;;;;;;54.10;30.35;;;;;;;;;;4952375;29;20114;-72
2022/11/30 13:47:51;;;;;;;55.42;31.58;;;;;;;;;;4942353;29;20508;-72
2022/11/30 13:50:47;;;;;;;57.10;31.13;;;;;;;;;;4964717;28;20436;-76
2022/11/30 13:53:21;;;;;;;60.33;33.80;;;;;;;;;;4943462;28;20042;-74
2022/11/30 13:55:47;;;;;;;56.50;32.47;;;;;;;;;;4954896;28;20476;-74
2022/11/30 13:58:14;;;;;;;59.08;34.40;;;;;;;;;;4963828;28;20042;-73
2022/11/30 14:00:40;;;;;;;60.40;33.00;;;;;;;;;;4962648;28;20043;-79
2022/11/30 14:03:21;;;;;;;52.40;29.77;;;;;;;;;;4959107;28;20112;-76
2022/11/30 14:05:48;;;;;;;55.58;33.30;;;;;;;;;;4937512;28;20031;-72
2022/11/30 14:08:17;;;;;;;54.13;31.83;;;;;;;;;;4944886;28;20067;-73
2022/11/30 14:10:45;;;;;;;55.03;32.15;;;;;;;;;;4951675;29;20155;-74
2022/11/30 14:13:12;;;;;;;58.17;33.60;;;;;;;;;;4944242;28;20080;-72
2022/11/30 14:15:38;;;;;;;54.15;32.75;;;;;;;;;;4945573;29;20114;-75
2022/11/30 14:18:07;;;;;;;55.17;31.65;;;;;;;;;;4952071;29;20381;-75
2022/11/30 14:20:34;;;;;;;56.13;32.97;;;;;;;;;;4965370;28;20054;-74
2022/11/30 14:23:07;;;;;;;60.90;33.28;;;;;;;;;;4960318;28;20031;-72
2022/11/30 14:25:34;;;;;;;63.20;36.25;;;;;;;;;;4961869;28;20388;-73
2022/11/30 14:28:02;;;;;;;51.90;32.15;;;;;;;;;;4949702;28;20055;-73
2022/11/30 14:30:31;;;;;;;58.38;32.42;;;;;;;;;;4966409;28;20472;-77